Norwood, Minnesota
Current Conditions -  °F | °C
As of 1:34 PM on Thursday 27 Nov 2014 (Local Time) from KGYL Reporting Station
Clear Clear  
Wind Chill: -3°   Ceiling: Unl
Heat Index:   Visibility: 10mi
Dew Point: -3°   Wind: 5mph
Humidity: 68%   Direction: 190°S
Pressure: 30.46"   Gusts: NA
Location:  44.77°N, 93.93°W
Report Text: KGYL 271934Z AUTO 19004KT 10SM CLR M14/M19 A3046 RMK AO2 T11441192
Loading
Personal Weather Stations






























Interactive Weather Map New forecast layout! Learn more

10-Day Weather Forecast

Advertisements
Track Severe Weather on mobile